Terminal Aerodrome Forecast
Issued by NWS

Home | Current Version | Previous Version | Text Only | Print | Product List | Glossary On
Versions: 1 2 3 4 5 6 7 8 9 10 11 12 13 14 15 16
203
FTUS46 KSEW 111131
TAFPAE
TAF
KPAE 111131Z 1112/1212 10006KT P6SM BKN120 OVC200
     FM111700 12008KT P6SM BKN050 OVC090
     FM112100 14010KT P6SM -RA OVC040
     FM120400 16010KT 5SM -RA OVC025=

USA.gov is the U.S. government's official web portal to all federal, state and local government web resources and services.